sensor_id;sensor_type;location;lat;lon;timestamp;temperature;humidity
54260;DHT22;40172;53.022;7.012;2023-04-25T00:01:22;6.40;99.90
54260;DHT22;40172;53.022;7.012;2023-04-25T00:03:48;6.30;99.90
54260;DHT22;40172;53.022;7.012;2023-04-25T00:06:14;6.30;99.90
54260;DHT22;40172;53.022;7.012;2023-04-25T00:08:40;6.20;99.90
54260;DHT22;40172;53.022;7.012;2023-04-25T00:11:05;6.20;99.90
54260;DHT22;40172;53.022;7.012;2023-04-25T00:13:32;6.10;99.90
54260;DHT22;40172;53.022;7.012;2023-04-25T00:15:58;6.10;99.90
54260;DHT22;40172;53.022;7.012;2023-04-25T00:18:25;6.10;99.90
54260;DHT22;40172;53.022;7.012;2023-04-25T00:20:54;6.10;99.90
54260;DHT22;40172;53.022;7.012;2023-04-25T00:23:20;6.10;99.90
54260;DHT22;40172;53.022;7.012;2023-04-25T00:25:47;6.10;99.90
54260;DHT22;40172;53.022;7.012;2023-04-25T00:28:13;6.10;99.90
54260;DHT22;40172;53.022;7.012;2023-04-25T00:30:40;6.10;99.90
54260;DHT22;40172;53.022;7.012;2023-04-25T00:33:06;6.10;99.90
54260;DHT22;40172;53.022;7.012;2023-04-25T00:35:32;6.10;99.90
54260;DHT22;40172;53.022;7.012;2023-04-25T00:37:57;6.10;99.90
54260;DHT22;40172;53.022;7.012;2023-04-25T00:40:23;6.20;99.90
54260;DHT22;40172;53.022;7.012;2023-04-25T00:42:50;6.10;99.90
54260;DHT22;40172;53.022;7.012;2023-04-25T00:45:17;6.10;99.90
54260;DHT22;40172;53.022;7.012;2023-04-25T00:47:43;6.10;99.90
54260;DHT22;40172;53.022;7.012;2023-04-25T00:50:09;6.10;99.90
54260;DHT22;40172;53.022;7.012;2023-04-25T00:52:36;6.10;99.90
54260;DHT22;40172;53.022;7.012;2023-04-25T00:55:02;6.10;99.90
54260;DHT22;40172;53.022;7.012;2023-04-25T00:57:28;6.10;99.90
54260;DHT22;40172;53.022;7.012;2023-04-25T00:59:54;6.10;99.90
54260;DHT22;40172;53.022;7.012;2023-04-25T01:02:20;6.10;99.90
54260;DHT22;40172;53.022;7.012;2023-04-25T01:04:48;6.10;99.90
54260;DHT22;40172;53.022;7.012;2023-04-25T01:07:14;6.00;99.90
54260;DHT22;40172;53.022;7.012;2023-04-25T01:09:41;6.00;99.90
54260;DHT22;40172;53.022;7.012;2023-04-25T01:12:06;6.00;99.90
54260;DHT22;40172;53.022;7.012;2023-04-25T01:14:32;6.10;99.90
54260;DHT22;40172;53.022;7.012;2023-04-25T01:16:58;5.90;99.90
54260;DHT22;40172;53.022;7.012;2023-04-25T01:19:24;5.70;99.90
54260;DHT22;40172;53.022;7.012;2023-04-25T01:21:50;5.60;99.90
54260;DHT22;40172;53.022;7.012;2023-04-25T01:24:16;5.50;99.90
54260;DHT22;40172;53.022;7.012;2023-04-25T01:26:42;5.40;99.90
54260;DHT22;40172;53.022;7.012;2023-04-25T01:29:19;5.30;99.90
54260;DHT22;40172;53.022;7.012;2023-04-25T01:31:45;5.20;99.90
54260;DHT22;40172;53.022;7.012;2023-04-25T01:34:12;5.20;99.90
54260;DHT22;40172;53.022;7.012;2023-04-25T01:36:38;5.10;99.90
54260;DHT22;40172;53.022;7.012;2023-04-25T01:39:04;5.00;99.90
54260;DHT22;40172;53.022;7.012;2023-04-25T01:41:30;5.00;99.90
54260;DHT22;40172;53.022;7.012;2023-04-25T01:43:56;5.00;99.90
54260;DHT22;40172;53.022;7.012;2023-04-25T01:46:22;5.00;99.90
54260;DHT22;40172;53.022;7.012;2023-04-25T01:48:48;5.00;99.90
54260;DHT22;40172;53.022;7.012;2023-04-25T01:51:13;5.00;99.90
54260;DHT22;40172;53.022;7.012;2023-04-25T01:53:39;5.00;99.90
54260;DHT22;40172;53.022;7.012;2023-04-25T01:56:05;5.00;99.90
54260;DHT22;40172;53.022;7.012;2023-04-25T01:58:31;5.00;99.90
54260;DHT22;40172;53.022;7.012;2023-04-25T02:00:56;5.00;99.90
54260;DHT22;40172;53.022;7.012;2023-04-25T02:03:22;5.00;99.90
54260;DHT22;40172;53.022;7.012;2023-04-25T02:05:48;5.00;99.90
54260;DHT22;40172;53.022;7.012;2023-04-25T02:08:13;5.00;99.90
54260;DHT22;40172;53.022;7.012;2023-04-25T02:10:39;4.90;99.90
54260;DHT22;40172;53.022;7.012;2023-04-25T02:13:05;5.00;99.90
54260;DHT22;40172;53.022;7.012;2023-04-25T02:15:31;5.00;99.90
54260;DHT22;40172;53.022;7.012;2023-04-25T02:17:56;5.00;99.90
54260;DHT22;40172;53.022;7.012;2023-04-25T02:20:24;5.00;99.90
54260;DHT22;40172;53.022;7.012;2023-04-25T02:22:50;5.00;99.90
54260;DHT22;40172;53.022;7.012;2023-04-25T02:25:17;5.00;99.90
54260;DHT22;40172;53.022;7.012;2023-04-25T02:27:46;5.00;99.90
54260;DHT22;40172;53.022;7.012;2023-04-25T02:30:12;5.00;99.90
54260;DHT22;40172;53.022;7.012;2023-04-25T02:32:38;5.10;99.90
54260;DHT22;40172;53.022;7.012;2023-04-25T02:35:04;5.10;99.90
54260;DHT22;40172;53.022;7.012;2023-04-25T02:37:31;5.20;99.90
54260;DHT22;40172;53.022;7.012;2023-04-25T02:39:57;5.20;99.90
54260;DHT22;40172;53.022;7.012;2023-04-25T02:42:23;5.20;99.90
54260;DHT22;40172;53.022;7.012;2023-04-25T02:44:48;5.20;99.90
54260;DHT22;40172;53.022;7.012;2023-04-25T02:47:14;5.20;99.90
54260;DHT22;40172;53.022;7.012;2023-04-25T02:49:39;5.20;99.90
54260;DHT22;40172;53.022;7.012;2023-04-25T02:52:05;5.20;99.90
54260;DHT22;40172;53.022;7.012;2023-04-25T02:54:31;5.20;99.90
54260;DHT22;40172;53.022;7.012;2023-04-25T02:56:56;5.10;99.90
54260;DHT22;40172;53.022;7.012;2023-04-25T02:59:22;5.10;99.90
54260;DHT22;40172;53.022;7.012;2023-04-25T03:01:48;5.20;99.90
54260;DHT22;40172;53.022;7.012;2023-04-25T03:04:13;5.00;99.90
54260;DHT22;40172;53.022;7.012;2023-04-25T03:06:39;5.00;99.90
54260;DHT22;40172;53.022;7.012;2023-04-25T03:09:04;5.00;99.90
54260;DHT22;40172;53.022;7.012;2023-04-25T03:11:30;5.00;99.90
54260;DHT22;40172;53.022;7.012;2023-04-25T03:13:56;5.00;99.90
54260;DHT22;40172;53.022;7.012;2023-04-25T03:16:22;5.00;99.90
54260;DHT22;40172;53.022;7.012;2023-04-25T03:18:47;5.00;99.90
54260;DHT22;40172;53.022;7.012;2023-04-25T03:21:13;5.10;99.90
54260;DHT22;40172;53.022;7.012;2023-04-25T03:23:38;5.20;99.90
54260;DHT22;40172;53.022;7.012;2023-04-25T03:26:04;5.30;99.90
54260;DHT22;40172;53.022;7.012;2023-04-25T03:28:29;5.30;99.90
54260;DHT22;40172;53.022;7.012;2023-04-25T03:30:55;5.20;99.90
54260;DHT22;40172;53.022;7.012;2023-04-25T03:33:21;5.10;99.90
54260;DHT22;40172;53.022;7.012;2023-04-25T03:35:46;5.10;99.90
54260;DHT22;40172;53.022;7.012;2023-04-25T03:38:12;6.60;99.90
54260;DHT22;40172;53.022;7.012;2023-04-25T03:40:38;5.00;99.90
54260;DHT22;40172;53.022;7.012;2023-04-25T03:43:03;5.00;99.90
54260;DHT22;40172;53.022;7.012;2023-04-25T03:45:29;4.90;99.90
54260;DHT22;40172;53.022;7.012;2023-04-25T03:47:55;4.90;99.90
54260;DHT22;40172;53.022;7.012;2023-04-25T03:50:20;4.90;99.90
54260;DHT22;40172;53.022;7.012;2023-04-25T03:52:46;4.80;99.90
54260;DHT22;40172;53.022;7.012;2023-04-25T03:55:11;4.80;99.90
54260;DHT22;40172;53.022;7.012;2023-04-25T03:57:37;4.80;99.90
54260;DHT22;40172;53.022;7.012;2023-04-25T04:00:03;4.80;99.90
54260;DHT22;40172;53.022;7.012;2023-04-25T04:02:29;4.80;99.90
54260;DHT22;40172;53.022;7.012;2023-04-25T04:04:55;4.80;99.90
54260;DHT22;40172;53.022;7.012;2023-04-25T04:07:22;4.80;99.90
54260;DHT22;40172;53.022;7.012;2023-04-25T04:09:47;4.80;99.90
54260;DHT22;40172;53.022;7.012;2023-04-25T04:12:13;4.80;99.90
54260;DHT22;40172;53.022;7.012;2023-04-25T04:14:38;4.70;99.90
54260;DHT22;40172;53.022;7.012;2023-04-25T04:17:04;4.70;99.90
54260;DHT22;40172;53.022;7.012;2023-04-25T04:19:31;4.60;99.90
54260;DHT22;40172;53.022;7.012;2023-04-25T04:21:56;4.60;99.90
54260;DHT22;40172;53.022;7.012;2023-04-25T04:24:22;4.50;99.90
54260;DHT22;40172;53.022;7.012;2023-04-25T04:26:47;4.50;99.90
54260;DHT22;40172;53.022;7.012;2023-04-25T04:29:13;4.50;99.90
54260;DHT22;40172;53.022;7.012;2023-04-25T04:31:49;4.50;99.90
54260;DHT22;40172;53.022;7.012;2023-04-25T04:34:18;4.50;99.90
54260;DHT22;40172;53.022;7.012;2023-04-25T04:36:45;4.50;99.90
54260;DHT22;40172;53.022;7.012;2023-04-25T04:39:12;4.60;99.90
54260;DHT22;40172;53.022;7.012;2023-04-25T04:41:37;5.20;99.90
54260;DHT22;40172;53.022;7.012;2023-04-25T04:44:05;4.60;99.90
54260;DHT22;40172;53.022;7.012;2023-04-25T04:46:32;4.70;99.90
54260;DHT22;40172;53.022;7.012;2023-04-25T04:49:04;4.70;99.90
54260;DHT22;40172;53.022;7.012;2023-04-25T04:51:30;4.60;99.90
54260;DHT22;40172;53.022;7.012;2023-04-25T04:53:56;4.60;99.90
54260;DHT22;40172;53.022;7.012;2023-04-25T04:56:24;4.60;99.90
54260;DHT22;40172;53.022;7.012;2023-04-25T04:58:51;4.50;99.90
54260;DHT22;40172;53.022;7.012;2023-04-25T05:01:16;4.40;99.90
54260;DHT22;40172;53.022;7.012;2023-04-25T05:03:42;4.30;99.90
54260;DHT22;40172;53.022;7.012;2023-04-25T05:06:10;4.30;99.90
54260;DHT22;40172;53.022;7.012;2023-04-25T05:08:36;4.30;99.90
54260;DHT22;40172;53.022;7.012;2023-04-25T05:11:02;4.30;99.90
54260;DHT22;40172;53.022;7.012;2023-04-25T05:13:27;4.30;99.90
54260;DHT22;40172;53.022;7.012;2023-04-25T05:15:53;4.30;99.90
54260;DHT22;40172;53.022;7.012;2023-04-25T05:18:19;4.30;99.90
54260;DHT22;40172;53.022;7.012;2023-04-25T05:20:44;4.30;99.90
54260;DHT22;40172;53.022;7.012;2023-04-25T05:23:10;4.30;99.90
54260;DHT22;40172;53.022;7.012;2023-04-25T05:25:36;4.40;99.90
54260;DHT22;40172;53.022;7.012;2023-04-25T05:28:01;4.40;99.90
54260;DHT22;40172;53.022;7.012;2023-04-25T05:30:27;4.50;99.90
54260;DHT22;40172;53.022;7.012;2023-04-25T05:32:53;4.60;99.90
54260;DHT22;40172;53.022;7.012;2023-04-25T05:35:18;4.70;99.90
54260;DHT22;40172;53.022;7.012;2023-04-25T05:37:44;4.90;99.90
54260;DHT22;40172;53.022;7.012;2023-04-25T05:40:10;5.10;99.90
54260;DHT22;40172;53.022;7.012;2023-04-25T05:42:35;5.10;99.90
54260;DHT22;40172;53.022;7.012;2023-04-25T05:45:02;5.30;99.90
54260;DHT22;40172;53.022;7.012;2023-04-25T05:47:28;5.30;99.90
54260;DHT22;40172;53.022;7.012;2023-04-25T05:49:53;5.40;99.90
54260;DHT22;40172;53.022;7.012;2023-04-25T05:52:19;5.50;99.90
54260;DHT22;40172;53.022;7.012;2023-04-25T05:54:44;5.50;99.90
54260;DHT22;40172;53.022;7.012;2023-04-25T05:57:23;5.50;99.90
54260;DHT22;40172;53.022;7.012;2023-04-25T05:59:49;5.50;99.90
54260;DHT22;40172;53.022;7.012;2023-04-25T06:02:14;5.40;99.90
54260;DHT22;40172;53.022;7.012;2023-04-25T06:04:40;5.40;99.90
54260;DHT22;40172;53.022;7.012;2023-04-25T06:07:06;5.30;99.90
54260;DHT22;40172;53.022;7.012;2023-04-25T06:09:31;5.20;99.90
54260;DHT22;40172;53.022;7.012;2023-04-25T06:11:57;5.30;99.90
54260;DHT22;40172;53.022;7.012;2023-04-25T06:14:22;5.20;99.90
54260;DHT22;40172;53.022;7.012;2023-04-25T06:16:48;5.20;99.90
54260;DHT22;40172;53.022;7.012;2023-04-25T06:19:13;5.20;99.90
54260;DHT22;40172;53.022;7.012;2023-04-25T06:21:39;5.20;99.90
54260;DHT22;40172;53.022;7.012;2023-04-25T06:24:05;5.30;99.90
54260;DHT22;40172;53.022;7.012;2023-04-25T06:26:30;5.50;99.90
54260;DHT22;40172;53.022;7.012;2023-04-25T06:28:56;5.70;99.90
54260;DHT22;40172;53.022;7.012;2023-04-25T06:31:21;5.80;99.90
54260;DHT22;40172;53.022;7.012;2023-04-25T06:33:47;5.90;99.90
54260;DHT22;40172;53.022;7.012;2023-04-25T06:36:14;5.80;99.90
54260;DHT22;40172;53.022;7.012;2023-04-25T06:38:39;5.80;99.90
54260;DHT22;40172;53.022;7.012;2023-04-25T06:41:05;5.80;99.90
54260;DHT22;40172;53.022;7.012;2023-04-25T06:43:30;5.70;99.90
54260;DHT22;40172;53.022;7.012;2023-04-25T06:45:59;5.60;99.90
54260;DHT22;40172;53.022;7.012;2023-04-25T06:48:26;5.60;99.90
54260;DHT22;40172;53.022;7.012;2023-04-25T06:50:52;5.60;99.90
54260;DHT22;40172;53.022;7.012;2023-04-25T06:53:17;5.70;99.90
54260;DHT22;40172;53.022;7.012;2023-04-25T06:55:44;5.70;99.90
54260;DHT22;40172;53.022;7.012;2023-04-25T06:58:09;5.70;99.90
54260;DHT22;40172;53.022;7.012;2023-04-25T07:00:35;5.70;99.90
54260;DHT22;40172;53.022;7.012;2023-04-25T07:03:01;5.70;99.90
54260;DHT22;40172;53.022;7.012;2023-04-25T07:05:27;5.80;99.90
54260;DHT22;40172;53.022;7.012;2023-04-25T07:07:53;6.10;99.90
54260;DHT22;40172;53.022;7.012;2023-04-25T07:10:18;5.80;99.90
54260;DHT22;40172;53.022;7.012;2023-04-25T07:12:44;6.00;99.90
54260;DHT22;40172;53.022;7.012;2023-04-25T07:15:10;6.20;99.90
54260;DHT22;40172;53.022;7.012;2023-04-25T07:17:37;6.50;99.90
54260;DHT22;40172;53.022;7.012;2023-04-25T07:20:03;6.70;99.90
54260;DHT22;40172;53.022;7.012;2023-04-25T07:22:29;6.80;99.90
54260;DHT22;40172;53.022;7.012;2023-04-25T07:24:55;7.00;99.90
54260;DHT22;40172;53.022;7.012;2023-04-25T07:27:20;7.10;99.90
54260;DHT22;40172;53.022;7.012;2023-04-25T07:29:46;7.30;99.90
54260;DHT22;40172;53.022;7.012;2023-04-25T07:32:11;7.50;99.90
54260;DHT22;40172;53.022;7.012;2023-04-25T07:34:39;7.80;99.90
54260;DHT22;40172;53.022;7.012;2023-04-25T07:37:05;8.10;99.90
54260;DHT22;40172;53.022;7.012;2023-04-25T07:39:31;8.10;99.90
54260;DHT22;40172;53.022;7.012;2023-04-25T07:41:56;7.90;99.90
54260;DHT22;40172;53.022;7.012;2023-04-25T07:44:24;7.70;99.90
54260;DHT22;40172;53.022;7.012;2023-04-25T07:46:51;7.40;99.90
54260;DHT22;40172;53.022;7.012;2023-04-25T07:49:16;7.30;99.90
54260;DHT22;40172;53.022;7.012;2023-04-25T07:51:42;7.20;99.90
54260;DHT22;40172;53.022;7.012;2023-04-25T07:54:09;7.10;99.90
54260;DHT22;40172;53.022;7.012;2023-04-25T07:56:35;7.10;99.90
54260;DHT22;40172;53.022;7.012;2023-04-25T07:59:01;7.00;99.90
54260;DHT22;40172;53.022;7.012;2023-04-25T08:01:26;7.30;99.90
54260;DHT22;40172;53.022;7.012;2023-04-25T08:03:52;7.40;99.90
54260;DHT22;40172;53.022;7.012;2023-04-25T08:06:18;7.50;99.90
54260;DHT22;40172;53.022;7.012;2023-04-25T08:08:44;7.50;99.90
54260;DHT22;40172;53.022;7.012;2023-04-25T08:11:09;7.60;99.90
54260;DHT22;40172;53.022;7.012;2023-04-25T08:13:35;9.00;99.90
54260;DHT22;40172;53.022;7.012;2023-04-25T08:16:01;8.10;99.90
54260;DHT22;40172;53.022;7.012;2023-04-25T08:18:27;8.40;99.90
54260;DHT22;40172;53.022;7.012;2023-04-25T08:20:52;8.60;99.90
54260;DHT22;40172;53.022;7.012;2023-04-25T08:23:18;8.60;99.90
54260;DHT22;40172;53.022;7.012;2023-04-25T08:25:43;8.60;99.90
54260;DHT22;40172;53.022;7.012;2023-04-25T08:28:09;8.50;99.90
54260;DHT22;40172;53.022;7.012;2023-04-25T08:30:34;8.40;99.90
54260;DHT22;40172;53.022;7.012;2023-04-25T08:33:00;8.40;99.90
54260;DHT22;40172;53.022;7.012;2023-04-25T08:35:26;8.30;99.90
54260;DHT22;40172;53.022;7.012;2023-04-25T08:37:51;8.10;99.90
54260;DHT22;40172;53.022;7.012;2023-04-25T08:40:17;8.00;99.90
54260;DHT22;40172;53.022;7.012;2023-04-25T08:42:43;8.00;99.90
54260;DHT22;40172;53.022;7.012;2023-04-25T08:45:09;7.90;99.90
54260;DHT22;40172;53.022;7.012;2023-04-25T08:47:38;7.90;99.90
54260;DHT22;40172;53.022;7.012;2023-04-25T08:50:04;8.10;99.90
54260;DHT22;40172;53.022;7.012;2023-04-25T08:52:44;8.40;99.90
54260;DHT22;40172;53.022;7.012;2023-04-25T08:55:12;8.70;99.90
54260;DHT22;40172;53.022;7.012;2023-04-25T08:57:39;9.10;99.90
54260;DHT22;40172;53.022;7.012;2023-04-25T09:00:09;9.10;99.90
54260;DHT22;40172;53.022;7.012;2023-04-25T09:02:35;8.50;99.90
54260;DHT22;40172;53.022;7.012;2023-04-25T09:05:02;7.80;99.90
54260;DHT22;40172;53.022;7.012;2023-04-25T09:07:30;7.40;99.90
54260;DHT22;40172;53.022;7.012;2023-04-25T09:09:55;7.60;99.90
54260;DHT22;40172;53.022;7.012;2023-04-25T09:12:21;6.90;99.90
54260;DHT22;40172;53.022;7.012;2023-04-25T09:17:29;7.10;99.90
54260;DHT22;40172;53.022;7.012;2023-04-25T09:19:55;7.20;99.90
54260;DHT22;40172;53.022;7.012;2023-04-25T09:22:30;7.30;99.90
54260;DHT22;40172;53.022;7.012;2023-04-25T09:24:56;7.40;99.90
54260;DHT22;40172;53.022;7.012;2023-04-25T09:27:21;7.50;99.90
54260;DHT22;40172;53.022;7.012;2023-04-25T09:29:48;7.70;99.90
54260;DHT22;40172;53.022;7.012;2023-04-25T09:32:22;7.70;99.90
54260;DHT22;40172;53.022;7.012;2023-04-25T09:34:56;7.80;99.90
54260;DHT22;40172;53.022;7.012;2023-04-25T09:37:24;8.00;99.90
54260;DHT22;40172;53.022;7.012;2023-04-25T09:39:52;8.20;99.90
54260;DHT22;40172;53.022;7.012;2023-04-25T09:42:22;8.40;99.90
54260;DHT22;40172;53.022;7.012;2023-04-25T09:44:49;8.70;99.90
54260;DHT22;40172;53.022;7.012;2023-04-25T09:47:16;8.90;99.90
54260;DHT22;40172;53.022;7.012;2023-04-25T09:49:43;9.00;99.90
54260;DHT22;40172;53.022;7.012;2023-04-25T09:52:14;8.90;99.90
54260;DHT22;40172;53.022;7.012;2023-04-25T09:54:40;8.70;99.90
54260;DHT22;40172;53.022;7.012;2023-04-25T09:57:11;8.60;99.90
54260;DHT22;40172;53.022;7.012;2023-04-25T09:59:39;9.70;99.90
54260;DHT22;40172;53.022;7.012;2023-04-25T10:02:08;9.30;99.90
54260;DHT22;40172;53.022;7.012;2023-04-25T10:04:35;9.00;99.90
54260;DHT22;40172;53.022;7.012;2023-04-25T10:07:05;9.20;99.90
54260;DHT22;40172;53.022;7.012;2023-04-25T10:09:32;9.50;99.90
54260;DHT22;40172;53.022;7.012;2023-04-25T10:12:01;9.80;99.90
54260;DHT22;40172;53.022;7.012;2023-04-25T10:14:29;9.90;99.90
54260;DHT22;40172;53.022;7.012;2023-04-25T10:16:57;10.10;99.90
54260;DHT22;40172;53.022;7.012;2023-04-25T10:19:24;9.80;99.90
54260;DHT22;40172;53.022;7.012;2023-04-25T10:22:03;9.00;99.90
54260;DHT22;40172;53.022;7.012;2023-04-25T10:24:29;8.10;99.90
54260;DHT22;40172;53.022;7.012;2023-04-25T10:26:56;7.60;99.90
54260;DHT22;40172;53.022;7.012;2023-04-25T10:29:26;7.50;99.90
54260;DHT22;40172;53.022;7.012;2023-04-25T10:31:52;7.50;99.90
54260;DHT22;40172;53.022;7.012;2023-04-25T10:34:18;7.50;99.90
54260;DHT22;40172;53.022;7.012;2023-04-25T10:36:50;7.60;99.90
54260;DHT22;40172;53.022;7.012;2023-04-25T10:39:23;7.60;99.90
54260;DHT22;40172;53.022;7.012;2023-04-25T10:41:58;7.90;99.90
54260;DHT22;40172;53.022;7.012;2023-04-25T10:44:28;8.30;99.90
54260;DHT22;40172;53.022;7.012;2023-04-25T10:46:58;8.80;99.90
54260;DHT22;40172;53.022;7.012;2023-04-25T10:49:42;9.20;99.90
54260;DHT22;40172;53.022;7.012;2023-04-25T10:52:24;9.30;99.90
54260;DHT22;40172;53.022;7.012;2023-04-25T10:54:55;9.30;99.90
54260;DHT22;40172;53.022;7.012;2023-04-25T10:57:32;9.00;99.90
54260;DHT22;40172;53.022;7.012;2023-04-25T11:02:31;8.30;99.90
54260;DHT22;40172;53.022;7.012;2023-04-25T11:04:56;8.10;99.90
54260;DHT22;40172;53.022;7.012;2023-04-25T11:07:29;10.20;99.90
54260;DHT22;40172;53.022;7.012;2023-04-25T11:10:02;8.50;99.90
54260;DHT22;40172;53.022;7.012;2023-04-25T11:12:30;8.80;99.90
54260;DHT22;40172;53.022;7.012;2023-04-25T11:15:04;8.90;99.90
54260;DHT22;40172;53.022;7.012;2023-04-25T11:17:30;8.70;99.90
54260;DHT22;40172;53.022;7.012;2023-04-25T11:19:55;8.50;99.90
54260;DHT22;40172;53.022;7.012;2023-04-25T11:22:22;8.30;99.90
54260;DHT22;40172;53.022;7.012;2023-04-25T11:24:48;8.20;99.90
54260;DHT22;40172;53.022;7.012;2023-04-25T11:27:13;8.20;99.90
54260;DHT22;40172;53.022;7.012;2023-04-25T11:29:40;8.50;99.90
54260;DHT22;40172;53.022;7.012;2023-04-25T11:32:06;8.70;99.90
54260;DHT22;40172;53.022;7.012;2023-04-25T11:34:34;8.90;99.90
54260;DHT22;40172;53.022;7.012;2023-04-25T11:37:03;9.10;99.90
54260;DHT22;40172;53.022;7.012;2023-04-25T11:39:29;9.10;99.90
54260;DHT22;40172;53.022;7.012;2023-04-25T11:41:55;8.70;99.90
54260;DHT22;40172;53.022;7.012;2023-04-25T11:44:22;7.90;99.90
54260;DHT22;40172;53.022;7.012;2023-04-25T11:46:48;7.30;99.90
54260;DHT22;40172;53.022;7.012;2023-04-25T11:49:14;7.00;99.90
54260;DHT22;40172;53.022;7.012;2023-04-25T11:51:44;7.10;99.90
54260;DHT22;40172;53.022;7.012;2023-04-25T11:54:11;7.40;99.90
54260;DHT22;40172;53.022;7.012;2023-04-25T11:56:37;7.70;99.90
54260;DHT22;40172;53.022;7.012;2023-04-25T11:59:04;7.70;99.90
54260;DHT22;40172;53.022;7.012;2023-04-25T12:01:32;8.00;99.90
54260;DHT22;40172;53.022;7.012;2023-04-25T12:04:09;8.30;99.90
54260;DHT22;40172;53.022;7.012;2023-04-25T12:06:37;8.60;99.90
54260;DHT22;40172;53.022;7.012;2023-04-25T12:09:08;9.00;99.90
54260;DHT22;40172;53.022;7.012;2023-04-25T12:11:41;9.20;99.90
54260;DHT22;40172;53.022;7.012;2023-04-25T12:14:08;9.50;99.90
54260;DHT22;40172;53.022;7.012;2023-04-25T12:16:45;9.40;99.90
54260;DHT22;40172;53.022;7.012;2023-04-25T12:19:14;9.20;99.90
54260;DHT22;40172;53.022;7.012;2023-04-25T12:21:40;9.10;99.90
54260;DHT22;40172;53.022;7.012;2023-04-25T12:24:13;9.10;99.90
54260;DHT22;40172;53.022;7.012;2023-04-25T12:27:01;9.30;99.90
54260;DHT22;40172;53.022;7.012;2023-04-25T12:29:29;9.50;99.90
54260;DHT22;40172;53.022;7.012;2023-04-25T12:31:55;9.60;99.90
54260;DHT22;40172;53.022;7.012;2023-04-25T12:34:22;9.60;99.90
54260;DHT22;40172;53.022;7.012;2023-04-25T12:36:49;9.70;99.90
54260;DHT22;40172;53.022;7.012;2023-04-25T12:39:19;9.10;99.90
54260;DHT22;40172;53.022;7.012;2023-04-25T12:41:45;9.00;99.90
54260;DHT22;40172;53.022;7.012;2023-04-25T12:44:12;9.20;99.90
54260;DHT22;40172;53.022;7.012;2023-04-25T12:46:37;9.50;99.90
54260;DHT22;40172;53.022;7.012;2023-04-25T12:49:04;9.60;99.90
54260;DHT22;40172;53.022;7.012;2023-04-25T12:51:31;9.80;99.90
54260;DHT22;40172;53.022;7.012;2023-04-25T12:53:58;9.90;99.90
54260;DHT22;40172;53.022;7.012;2023-04-25T12:56:28;10.00;99.90
54260;DHT22;40172;53.022;7.012;2023-04-25T12:58:54;10.00;99.90
54260;DHT22;40172;53.022;7.012;2023-04-25T13:01:20;10.10;99.90
54260;DHT22;40172;53.022;7.012;2023-04-25T13:03:47;10.20;99.90
54260;DHT22;40172;53.022;7.012;2023-04-25T13:06:13;10.00;99.90
54260;DHT22;40172;53.022;7.012;2023-04-25T13:08:39;9.60;99.90
54260;DHT22;40172;53.022;7.012;2023-04-25T13:11:06;9.30;99.90
54260;DHT22;40172;53.022;7.012;2023-04-25T13:13:32;9.10;99.90
54260;DHT22;40172;53.022;7.012;2023-04-25T13:16:00;8.90;99.90
54260;DHT22;40172;53.022;7.012;2023-04-25T13:18:26;8.90;99.90
54260;DHT22;40172;53.022;7.012;2023-04-25T13:20:55;8.90;99.90
54260;DHT22;40172;53.022;7.012;2023-04-25T13:23:21;9.00;99.90
54260;DHT22;40172;53.022;7.012;2023-04-25T13:25:47;9.10;99.90
54260;DHT22;40172;53.022;7.012;2023-04-25T13:28:13;9.00;99.90
54260;DHT22;40172;53.022;7.012;2023-04-25T13:30:39;9.00;99.90
54260;DHT22;40172;53.022;7.012;2023-04-25T13:33:05;9.40;99.90
54260;DHT22;40172;53.022;7.012;2023-04-25T13:35:31;9.60;99.90
54260;DHT22;40172;53.022;7.012;2023-04-25T13:37:56;9.80;99.90
54260;DHT22;40172;53.022;7.012;2023-04-25T13:40:22;9.80;99.90
54260;DHT22;40172;53.022;7.012;2023-04-25T13:42:48;9.50;99.90
54260;DHT22;40172;53.022;7.012;2023-04-25T13:45:13;9.20;99.90
54260;DHT22;40172;53.022;7.012;2023-04-25T13:47:39;8.90;99.90
54260;DHT22;40172;53.022;7.012;2023-04-25T13:50:05;8.70;99.90
54260;DHT22;40172;53.022;7.012;2023-04-25T13:52:32;8.80;99.90
54260;DHT22;40172;53.022;7.012;2023-04-25T13:54:58;9.20;99.90
54260;DHT22;40172;53.022;7.012;2023-04-25T13:57:24;9.60;99.90
54260;DHT22;40172;53.022;7.012;2023-04-25T13:59:50;9.70;99.90
54260;DHT22;40172;53.022;7.012;2023-04-25T14:02:16;9.60;99.90
54260;DHT22;40172;53.022;7.012;2023-04-25T14:04:42;9.60;99.90
54260;DHT22;40172;53.022;7.012;2023-04-25T14:07:07;9.20;99.90
54260;DHT22;40172;53.022;7.012;2023-04-25T14:09:33;9.30;99.90
54260;DHT22;40172;53.022;7.012;2023-04-25T14:11:59;9.20;99.90
54260;DHT22;40172;53.022;7.012;2023-04-25T14:14:25;9.60;99.90
54260;DHT22;40172;53.022;7.012;2023-04-25T14:16:51;9.60;99.90
54260;DHT22;40172;53.022;7.012;2023-04-25T14:19:19;9.90;99.90
54260;DHT22;40172;53.022;7.012;2023-04-25T14:21:45;9.80;99.90
54260;DHT22;40172;53.022;7.012;2023-04-25T14:24:12;9.60;99.90
54260;DHT22;40172;53.022;7.012;2023-04-25T14:26:38;9.40;99.90
54260;DHT22;40172;53.022;7.012;2023-04-25T14:29:07;9.20;99.90
54260;DHT22;40172;53.022;7.012;2023-04-25T14:31:34;9.10;99.90
54260;DHT22;40172;53.022;7.012;2023-04-25T14:34:00;8.90;99.90
54260;DHT22;40172;53.022;7.012;2023-04-25T14:36:28;9.00;99.90
54260;DHT22;40172;53.022;7.012;2023-04-25T14:38:54;8.90;99.90
54260;DHT22;40172;53.022;7.012;2023-04-25T14:41:20;8.80;99.90
54260;DHT22;40172;53.022;7.012;2023-04-25T14:43:46;8.70;99.90
54260;DHT22;40172;53.022;7.012;2023-04-25T14:46:12;8.50;99.90
54260;DHT22;40172;53.022;7.012;2023-04-25T14:48:38;8.40;99.90
54260;DHT22;40172;53.022;7.012;2023-04-25T14:51:04;8.30;99.90
54260;DHT22;40172;53.022;7.012;2023-04-25T14:53:30;8.30;99.90
54260;DHT22;40172;53.022;7.012;2023-04-25T14:55:56;8.30;99.90
54260;DHT22;40172;53.022;7.012;2023-04-25T14:58:21;8.40;99.90
54260;DHT22;40172;53.022;7.012;2023-04-25T15:00:48;8.40;99.90
54260;DHT22;40172;53.022;7.012;2023-04-25T15:03:13;8.50;99.90
54260;DHT22;40172;53.022;7.012;2023-04-25T15:05:41;8.50;99.90
54260;DHT22;40172;53.022;7.012;2023-04-25T15:08:08;8.50;99.90
54260;DHT22;40172;53.022;7.012;2023-04-25T15:10:34;8.50;99.90
54260;DHT22;40172;53.022;7.012;2023-04-25T15:12:59;8.50;99.90
54260;DHT22;40172;53.022;7.012;2023-04-25T15:15:25;8.40;99.90
54260;DHT22;40172;53.022;7.012;2023-04-25T15:17:52;8.40;99.90
54260;DHT22;40172;53.022;7.012;2023-04-25T15:20:20;8.40;99.90
54260;DHT22;40172;53.022;7.012;2023-04-25T15:22:46;8.40;99.90
54260;DHT22;40172;53.022;7.012;2023-04-25T15:25:14;8.50;99.90
54260;DHT22;40172;53.022;7.012;2023-04-25T15:27:41;8.80;99.90
54260;DHT22;40172;53.022;7.012;2023-04-25T15:30:09;8.90;99.90
54260;DHT22;40172;53.022;7.012;2023-04-25T15:32:45;8.90;99.90
54260;DHT22;40172;53.022;7.012;2023-04-25T15:35:13;8.60;99.90
54260;DHT22;40172;53.022;7.012;2023-04-25T15:37:39;8.30;99.90
54260;DHT22;40172;53.022;7.012;2023-04-25T15:40:07;8.00;99.90
54260;DHT22;40172;53.022;7.012;2023-04-25T15:42:39;8.10;99.90
54260;DHT22;40172;53.022;7.012;2023-04-25T15:45:07;8.40;99.90
54260;DHT22;40172;53.022;7.012;2023-04-25T15:47:37;8.60;99.90